Terminal Aerodrome Forecast
Issued by NWS

Home | Current Version | Previous Version | Text Only | Print | Product List | Glossary On
Versions: 1 2 3 4 5 6 7 8 9 10 11 12 13 14 15 16
000
FTUS43 KJKL 271900 AAA
TAFSME
TAF AMD
KSME 271935Z 2720/2818 23010G18KT 6SM BR VCTS SCT035CB BKN100
      TEMPO 2720/2723 VRB15G30KT 1SM +TSRA BR BKN025CB
     FM272300 27005KT P6SM VCTS SCT040CB
     FM280400 VRB03KT 3SM BR BKN030
      AMD NOT SKED=

USA.gov is the U.S. government's official web portal to all federal, state and local government web resources and services.